createdAt,value
2019-04-28T00:00:38.806Z,9.69
2019-04-28T00:01:38.826Z,9.69
2019-04-28T00:02:40.740Z,9.73
2019-04-28T00:03:38.777Z,9.80
2019-04-28T00:04:38.774Z,9.84
2019-04-28T00:05:38.754Z,9.82
2019-04-28T00:06:38.744Z,9.73
2019-04-28T00:07:38.758Z,9.82
2019-04-28T00:08:38.719Z,9.79
2019-04-28T00:09:38.708Z,9.74
2019-04-28T00:10:38.695Z,9.68
2019-04-28T00:11:38.686Z,9.73
2019-04-28T00:12:38.713Z,9.73
2019-04-28T00:13:38.782Z,9.80
2019-04-28T00:14:38.665Z,9.69
2019-04-28T00:15:38.648Z,9.72
2019-04-28T00:16:38.688Z,9.79
2019-04-28T00:17:38.631Z,9.82
2019-04-28T00:18:38.636Z,9.79
2019-04-28T00:19:38.615Z,9.69
2019-04-28T00:20:38.619Z,9.80
2019-04-28T00:21:38.592Z,9.73
2019-04-28T00:22:38.583Z,9.74
2019-04-28T00:23:38.553Z,9.79
2019-04-28T00:24:38.550Z,9.69
2019-04-28T00:25:38.553Z,9.80
2019-04-28T00:26:38.548Z,9.76
2019-04-28T00:27:38.515Z,9.74
2019-04-28T00:28:38.506Z,9.69
2019-04-28T00:29:43.540Z,9.77
2019-04-28T00:30:39.482Z,9.74
2019-04-28T00:31:38.500Z,9.68
2019-04-28T00:32:38.461Z,9.76
2019-04-28T00:33:38.444Z,9.66
2019-04-28T00:34:38.514Z,9.74
2019-04-28T00:35:38.421Z,9.72
2019-04-28T00:36:38.418Z,9.65
2019-04-28T00:37:38.411Z,9.73
2019-04-28T00:38:38.416Z,9.68
2019-04-28T00:39:38.404Z,9.77
2019-04-28T00:40:38.371Z,9.77
2019-04-28T00:41:38.360Z,9.61
2019-04-28T00:42:38.424Z,9.66
2019-04-28T00:43:38.340Z,9.73
2019-04-28T00:44:38.328Z,9.76
2019-04-28T00:45:38.333Z,9.73
2019-04-28T00:46:38.306Z,9.73
2019-04-28T00:47:38.303Z,9.74
2019-04-28T00:48:38.290Z,9.69
2019-04-28T00:49:38.273Z,9.73
2019-04-28T00:50:38.364Z,9.65
2019-04-28T00:51:38.278Z,9.76
2019-04-28T00:52:38.238Z,9.66
2019-04-28T00:53:38.295Z,9.68
2019-04-28T00:54:38.229Z,9.74
2019-04-28T00:55:38.206Z,9.74
2019-04-28T00:56:38.195Z,9.68
2019-04-28T00:57:38.220Z,9.62
2019-04-28T00:58:38.175Z,9.66
2019-04-28T00:59:50.878Z,9.74
2019-04-28T01:00:39.153Z,9.74
2019-04-28T01:01:38.150Z,9.73
2019-04-28T01:02:38.142Z,9.72
2019-04-28T01:03:38.137Z,9.72
2019-04-28T01:04:38.130Z,9.73
2019-04-28T01:05:38.117Z,9.72
2019-04-28T01:06:38.219Z,9.69
2019-04-28T01:07:38.079Z,9.66
2019-04-28T01:08:38.078Z,9.69
2019-04-28T01:09:38.136Z,9.80
2019-04-28T01:10:38.044Z,9.76
2019-04-28T01:11:38.067Z,9.68
2019-04-28T01:12:38.054Z,9.76
2019-04-28T01:13:38.017Z,9.65
2019-04-28T01:14:38.019Z,9.73
2019-04-28T01:15:39.646Z,9.77
2019-04-28T01:16:39.861Z,9.74
2019-04-28T01:17:39.720Z,9.73
2019-04-28T01:18:37.975Z,9.74
2019-04-28T01:19:39.798Z,9.74
2019-04-28T01:20:39.680Z,9.68
2019-04-28T01:21:37.935Z,9.73
2019-04-28T01:22:40.040Z,9.73
2019-04-28T01:23:37.955Z,9.73
2019-04-28T01:24:39.639Z,9.72
2019-04-28T01:25:37.977Z,9.69
2019-04-28T01:26:39.166Z,9.73
2019-04-28T01:27:37.868Z,9.73
2019-04-28T01:28:39.663Z,9.66
2019-04-28T01:29:37.890Z,9.73
2019-04-28T01:30:37.838Z,9.73
2019-04-28T01:31:39.518Z,9.76
2019-04-28T01:32:39.897Z,9.79
2019-04-28T01:33:37.805Z,9.74
2019-04-28T01:34:37.779Z,9.83
2019-04-28T01:35:39.160Z,9.83
2019-04-28T01:36:37.773Z,9.83
2019-04-28T01:37:37.752Z,9.82
2019-04-28T01:38:37.792Z,9.74
2019-04-28T01:39:41.031Z,9.74
2019-04-28T01:40:37.732Z,9.74
2019-04-28T01:41:39.629Z,9.66
2019-04-28T01:42:37.693Z,9.74
2019-04-28T01:43:37.895Z,9.74
2019-04-28T01:44:39.407Z,9.68
2019-04-28T01:45:37.671Z,9.74
2019-04-28T01:46:39.732Z,9.72
2019-04-28T01:47:37.703Z,9.66
2019-04-28T01:48:37.630Z,9.74
2019-04-28T01:49:37.731Z,9.73
2019-04-28T01:50:37.661Z,9.72
2019-04-28T01:51:37.609Z,9.59
2019-04-28T01:52:37.589Z,9.69
2019-04-28T01:53:39.455Z,9.73
2019-04-28T01:54:37.566Z,9.68
2019-04-28T01:55:39.348Z,9.62
2019-04-28T01:56:37.542Z,9.59
2019-04-28T01:57:37.571Z,9.66
2019-04-28T01:58:37.542Z,9.59
2019-04-28T01:59:37.573Z,9.62
2019-04-28T02:00:37.493Z,9.62
2019-04-28T02:01:37.513Z,9.61
2019-04-28T02:02:37.471Z,9.61
2019-04-28T02:03:37.476Z,9.64
2019-04-28T02:04:37.465Z,9.59
2019-04-28T02:05:37.561Z,9.65
2019-04-28T02:06:37.458Z,9.65
2019-04-28T02:07:37.456Z,9.56
2019-04-28T02:08:37.496Z,9.61
2019-04-28T02:09:37.403Z,9.62
2019-04-28T02:10:37.396Z,9.54
2019-04-28T02:11:37.383Z,9.61
2019-04-28T02:12:37.374Z,9.50
2019-04-28T02:13:37.423Z,9.62
2019-04-28T02:14:37.379Z,9.59
2019-04-28T02:15:37.333Z,9.58
2019-04-28T02:16:37.344Z,9.55
2019-04-28T02:17:37.320Z,9.58
2019-04-28T02:18:37.296Z,9.46
2019-04-28T02:19:37.325Z,9.50
2019-04-28T02:20:37.287Z,9.48
2019-04-28T02:21:37.282Z,9.48
2019-04-28T02:22:37.277Z,9.51
2019-04-28T02:23:37.257Z,9.48
2019-04-28T02:24:37.270Z,9.48
2019-04-28T02:25:37.250Z,9.55
2019-04-28T02:26:37.228Z,9.54
2019-04-28T02:27:37.205Z,9.47
2019-04-28T02:28:37.221Z,9.46
2019-04-28T02:29:37.420Z,9.48
2019-04-28T02:30:47.933Z,9.46
2019-04-28T02:31:38.168Z,9.46
2019-04-28T02:32:37.186Z,9.43
2019-04-28T02:33:37.150Z,9.46
2019-04-28T02:34:37.129Z,9.47
2019-04-28T02:35:37.178Z,9.39
2019-04-28T02:36:37.175Z,9.40
2019-04-28T02:37:37.130Z,9.40
2019-04-28T02:38:37.084Z,9.39
2019-04-28T02:39:37.142Z,9.43
2019-04-28T02:40:37.072Z,9.43
2019-04-28T02:41:37.055Z,9.39
2019-04-28T02:42:37.103Z,9.40
2019-04-28T02:43:37.030Z,9.41
2019-04-28T02:44:37.025Z,9.41
2019-04-28T02:45:37.015Z,9.43
2019-04-28T02:46:37.002Z,9.39
2019-04-28T02:47:36.982Z,9.44
2019-04-28T02:49:40.324Z,9.48
2019-04-28T02:50:36.963Z,9.47
2019-04-28T02:51:37.022Z,9.47
2019-04-28T02:52:36.941Z,9.43
2019-04-28T02:53:36.993Z,9.51
2019-04-28T02:54:36.906Z,9.56
2019-04-28T02:55:36.934Z,9.48
2019-04-28T02:56:36.888Z,9.51
2019-04-28T02:57:36.883Z,9.41
2019-04-28T02:58:36.951Z,9.40
2019-04-28T02:59:36.880Z,9.50
2019-04-28T03:00:36.888Z,9.44
2019-04-28T03:01:36.862Z,9.39
2019-04-28T03:02:36.819Z,9.46
2019-04-28T03:03:36.807Z,9.41
2019-04-28T03:04:36.839Z,9.46
2019-04-28T03:05:36.843Z,9.31
2019-04-28T03:06:36.782Z,9.31
2019-04-28T03:07:36.794Z,9.31
2019-04-28T03:08:36.772Z,9.31
2019-04-28T03:09:36.760Z,9.29
2019-04-28T03:10:36.796Z,9.25
2019-04-28T03:11:36.719Z,9.25
2019-04-28T03:12:36.831Z,9.22
2019-04-28T03:13:36.744Z,9.28
2019-04-28T03:14:36.713Z,9.29
2019-04-28T03:15:36.750Z,9.25
2019-04-28T03:16:36.685Z,9.23
2019-04-28T03:17:36.672Z,9.19
2019-04-28T03:18:36.670Z,9.23
2019-04-28T03:19:36.664Z,9.23
2019-04-28T03:20:36.633Z,9.31
2019-04-28T03:21:36.666Z,9.32
2019-04-28T03:22:36.632Z,9.36
2019-04-28T03:23:36.595Z,9.28
2019-04-28T03:24:36.582Z,9.31
2019-04-28T03:25:36.616Z,9.28
2019-04-28T03:26:36.567Z,9.25
2019-04-28T03:27:36.569Z,9.25
2019-04-28T03:28:36.618Z,9.23
2019-04-28T03:29:36.541Z,9.23
2019-04-28T03:30:36.592Z,9.22
2019-04-28T03:32:03.895Z,9.26
2019-04-28T03:32:50.928Z,9.18
2019-04-28T03:33:43.493Z,9.23
2019-04-28T03:34:37.521Z,9.19
2019-04-28T03:35:36.498Z,9.28
2019-04-28T03:36:36.479Z,9.18
2019-04-28T03:37:36.438Z,9.13
2019-04-28T03:38:36.440Z,9.16
2019-04-28T03:39:36.449Z,9.23
2019-04-28T03:40:36.437Z,9.16
2019-04-28T03:41:36.436Z,9.18
2019-04-28T03:42:36.404Z,9.22
2019-04-28T03:43:36.369Z,9.06
2019-04-28T03:44:36.400Z,9.19
2019-04-28T03:45:36.387Z,9.18
2019-04-28T03:46:36.420Z,9.16
2019-04-28T03:47:36.426Z,9.23
2019-04-28T03:48:36.340Z,9.18
2019-04-28T03:49:36.309Z,9.23
2019-04-28T03:50:36.329Z,9.18
2019-04-28T03:51:36.342Z,9.18
2019-04-28T03:52:36.302Z,9.10
2019-04-28T03:53:36.324Z,9.21
2019-04-28T03:54:36.251Z,9.16
2019-04-28T03:55:36.236Z,9.22
2019-04-28T03:56:36.228Z,9.18
2019-04-28T03:57:36.341Z,9.14
2019-04-28T03:58:36.209Z,9.13
2019-04-28T03:59:36.201Z,9.18
2019-04-28T04:00:36.232Z,9.21
2019-04-28T04:01:52.168Z,9.19
2019-04-28T04:02:37.671Z,9.28
2019-04-28T04:03:36.151Z,9.25
2019-04-28T04:04:36.223Z,9.14
2019-04-28T04:05:36.211Z,9.13
2019-04-28T04:06:36.141Z,9.16
2019-04-28T04:07:36.218Z,9.18
2019-04-28T04:08:36.269Z,9.21
2019-04-28T04:09:36.116Z,9.19
2019-04-28T04:10:36.112Z,9.18
2019-04-28T04:11:36.223Z,9.16
2019-04-28T04:12:36.039Z,9.11
2019-04-28T04:13:36.070Z,9.22
2019-04-28T04:14:36.033Z,9.21
2019-04-28T04:15:36.022Z,9.18
2019-04-28T04:16:36.067Z,9.11
2019-04-28T04:17:35.983Z,9.13
2019-04-28T04:18:35.980Z,9.16
2019-04-28T04:19:35.981Z,9.10
2019-04-28T04:20:35.967Z,9.02
2019-04-28T04:21:36.053Z,9.02
2019-04-28T04:22:35.958Z,9.08
2019-04-28T04:23:35.970Z,9.06
2019-04-28T04:24:35.929Z,9.06
2019-04-28T04:25:35.952Z,9.03
2019-04-28T04:26:35.887Z,9.08
2019-04-28T04:27:36.093Z,9.10
2019-04-28T04:28:35.881Z,9.10
2019-04-28T04:29:35.854Z,9.18
2019-04-28T04:30:35.915Z,9.22
2019-04-28T04:31:35.839Z,9.14
2019-04-28T04:32:35.829Z,9.08
2019-04-28T04:33:35.858Z,9.13
2019-04-28T04:34:35.804Z,9.11
2019-04-28T04:35:35.835Z,9.18
2019-04-28T04:36:35.781Z,9.21
2019-04-28T04:37:35.773Z,9.13
2019-04-28T04:38:35.754Z,9.28
2019-04-28T04:39:35.755Z,9.21
2019-04-28T04:40:35.776Z,9.06
2019-04-28T04:41:35.726Z,9.16
2019-04-28T04:42:35.720Z,9.14
2019-04-28T04:43:35.711Z,9.14
2019-04-28T04:44:37.984Z,9.14
2019-04-28T04:45:36.698Z,9.22
2019-04-28T04:46:35.687Z,9.21
2019-04-28T04:47:35.686Z,9.22
2019-04-28T04:48:35.823Z,9.26
2019-04-28T04:49:35.665Z,9.13
2019-04-28T04:50:35.634Z,9.22
2019-04-28T04:51:35.667Z,9.21
2019-04-28T04:52:35.605Z,9.29
2019-04-28T04:53:35.607Z,9.25
2019-04-28T04:54:36.847Z,9.23
2019-04-28T04:55:35.568Z,9.23
2019-04-28T04:56:35.561Z,9.26
2019-04-28T04:57:35.629Z,9.23
2019-04-28T04:58:35.542Z,9.26
2019-04-28T04:59:35.584Z,9.25
2019-04-28T05:00:35.552Z,9.26
2019-04-28T05:01:35.509Z,9.31
2019-04-28T05:02:35.535Z,9.37
2019-04-28T05:03:35.495Z,9.36
2019-04-28T05:04:35.480Z,9.21
2019-04-28T05:05:35.584Z,9.37
2019-04-28T05:06:35.462Z,9.31
2019-04-28T05:07:36.054Z,9.31
2019-04-28T05:08:35.450Z,9.31
2019-04-28T05:09:35.442Z,9.34
2019-04-28T05:10:35.434Z,9.36
2019-04-28T05:11:35.411Z,9.37
2019-04-28T05:12:35.410Z,9.37
2019-04-28T05:13:35.426Z,9.37
2019-04-28T05:14:35.398Z,9.32
2019-04-28T05:15:35.350Z,9.34
2019-04-28T05:16:35.350Z,9.28
2019-04-28T05:17:35.400Z,9.32
2019-04-28T05:18:35.320Z,9.29
2019-04-28T05:19:35.337Z,9.37
2019-04-28T05:20:35.462Z,9.34
2019-04-28T05:21:35.329Z,9.36
2019-04-28T05:22:35.286Z,9.34
2019-04-28T05:23:35.306Z,9.43
2019-04-28T05:24:35.242Z,9.44
2019-04-28T05:25:35.279Z,9.36
2019-04-28T05:26:35.231Z,9.37
2019-04-28T05:27:35.252Z,9.39
2019-04-28T05:28:36.833Z,9.43
2019-04-28T05:29:36.244Z,9.41
2019-04-28T05:30:39.728Z,9.48
2019-04-28T05:31:36.207Z,9.40
2019-04-28T05:32:44.660Z,9.48
2019-04-28T05:33:36.234Z,9.51
2019-04-28T05:34:35.289Z,9.47
2019-04-28T05:35:35.792Z,9.48
2019-04-28T05:36:41.094Z,9.55
2019-04-28T05:37:36.111Z,9.43
2019-04-28T05:38:35.131Z,9.55
2019-04-28T05:39:37.724Z,9.55
2019-04-28T05:40:35.109Z,9.51
2019-04-28T05:41:35.066Z,9.48
2019-04-28T05:42:35.050Z,9.51
2019-04-28T05:43:35.074Z,9.48
2019-04-28T05:44:37.505Z,9.47
2019-04-28T05:45:35.053Z,9.54
2019-04-28T05:46:35.024Z,9.48
2019-04-28T05:47:35.017Z,9.54
2019-04-28T05:49:36.215Z,9.55
2019-04-28T05:50:35.564Z,9.61
2019-04-28T05:51:34.965Z,9.65
2019-04-28T05:52:34.945Z,9.62
2019-04-28T05:53:34.980Z,9.62
2019-04-28T05:54:34.990Z,9.74
2019-04-28T05:55:34.956Z,9.64
2019-04-28T05:56:35.011Z,9.72
2019-04-28T05:57:34.899Z,9.73
2019-04-28T05:58:34.892Z,9.74
2019-04-28T05:59:34.931Z,9.79
2019-04-28T06:00:34.937Z,9.72
2019-04-28T06:01:34.890Z,9.79
2019-04-28T06:02:34.834Z,9.82
2019-04-28T06:03:34.821Z,9.83
2019-04-28T06:04:34.862Z,9.83
2019-04-28T06:05:34.816Z,9.84
2019-04-28T06:06:34.842Z,9.82
2019-04-28T06:07:35.616Z,9.80
2019-04-28T06:08:34.894Z,9.80
2019-04-28T06:09:34.793Z,9.91
2019-04-28T06:10:34.766Z,9.87
2019-04-28T06:11:34.760Z,9.94
2019-04-28T06:12:34.762Z,9.97
2019-04-28T06:13:34.716Z,9.91
2019-04-28T06:14:34.897Z,9.97
2019-04-28T06:15:34.696Z,9.91
2019-04-28T06:16:34.675Z,9.98
2019-04-28T06:17:34.721Z,9.98
2019-04-28T06:18:34.651Z,9.97
2019-04-28T06:19:34.671Z,10.01
2019-04-28T06:20:34.719Z,10.01
2019-04-28T06:21:34.649Z,9.99
2019-04-28T06:22:34.659Z,9.99
2019-04-28T06:23:34.638Z,9.94
2019-04-28T06:24:34.662Z,9.99
2019-04-28T06:25:34.589Z,9.92
2019-04-28T06:26:34.596Z,9.95
2019-04-28T06:27:34.580Z,9.95
2019-04-28T06:28:34.545Z,9.99
2019-04-28T06:29:34.595Z,10.01
2019-04-28T06:30:34.535Z,10.07
2019-04-28T06:31:34.506Z,10.05
2019-04-28T06:32:34.526Z,9.99
2019-04-28T06:33:35.068Z,10.04
2019-04-28T06:34:34.523Z,9.98
2019-04-28T06:35:34.585Z,10.01
2019-04-28T06:36:34.623Z,10.01
2019-04-28T06:37:34.537Z,10.04
2019-04-28T06:38:34.432Z,10.07
2019-04-28T06:39:34.460Z,10.04
2019-04-28T06:40:34.521Z,10.04
2019-04-28T06:41:34.431Z,10.09
2019-04-28T06:42:34.403Z,10.05
2019-04-28T06:43:34.503Z,10.09
2019-04-28T06:44:34.447Z,10.09
2019-04-28T06:45:34.461Z,10.17
2019-04-28T06:46:34.364Z,10.23
2019-04-28T06:47:34.368Z,10.26
2019-04-28T06:48:34.395Z,10.25
2019-04-28T06:49:34.461Z,10.25
2019-04-28T06:50:34.331Z,10.30
2019-04-28T06:51:34.300Z,10.26
2019-04-28T06:52:34.298Z,10.19
2019-04-28T06:53:34.334Z,10.13
2019-04-28T06:54:34.329Z,10.15
2019-04-28T06:55:34.272Z,10.15
2019-04-28T06:56:34.250Z,10.15
2019-04-28T06:57:34.433Z,10.12
2019-04-28T06:58:34.254Z,10.19
2019-04-28T06:59:34.241Z,10.26
2019-04-28T07:00:34.415Z,10.20
2019-04-28T07:01:34.182Z,10.22
2019-04-28T07:02:34.184Z,10.23
2019-04-28T07:03:34.242Z,10.26
2019-04-28T07:04:34.142Z,10.23
2019-04-28T07:05:34.188Z,10.30
2019-04-28T07:06:34.185Z,10.25
2019-04-28T07:07:34.194Z,10.20
2019-04-28T07:08:34.103Z,10.23
2019-04-28T07:09:34.121Z,10.23
2019-04-28T07:10:34.119Z,10.30
2019-04-28T07:11:34.080Z,10.23
2019-04-28T07:12:34.138Z,10.28
2019-04-28T07:13:34.145Z,10.30
2019-04-28T07:14:34.064Z,10.26
2019-04-28T07:15:34.040Z,10.42
2019-04-28T07:16:34.051Z,10.41
2019-04-28T07:17:34.000Z,10.40
2019-04-28T07:18:34.009Z,10.34
2019-04-28T07:19:34.011Z,10.44
2019-04-28T07:20:34.008Z,10.49
2019-04-28T07:21:34.018Z,10.46
2019-04-28T07:22:34.056Z,10.48
2019-04-28T07:23:34.039Z,10.46
2019-04-28T07:24:33.941Z,10.35
2019-04-28T07:25:33.949Z,10.48
2019-04-28T07:26:33.914Z,10.37
2019-04-28T07:27:33.912Z,10.35
2019-04-28T07:28:33.889Z,10.40
2019-04-28T07:29:34.098Z,10.31
2019-04-28T07:30:33.900Z,10.30
2019-04-28T07:31:33.855Z,10.35
2019-04-28T07:32:33.853Z,10.22
2019-04-28T07:33:36.122Z,10.30
2019-04-28T07:34:33.872Z,10.40
2019-04-28T07:35:33.825Z,10.42
2019-04-28T07:36:33.808Z,10.46
2019-04-28T07:37:33.804Z,10.49
2019-04-28T07:38:33.794Z,10.48
2019-04-28T07:39:33.790Z,10.40
2019-04-28T07:40:33.768Z,10.35
2019-04-28T07:41:33.761Z,10.37
2019-04-28T07:42:33.733Z,10.35
2019-04-28T07:43:33.716Z,10.33
2019-04-28T07:44:33.760Z,10.37
2019-04-28T07:45:33.773Z,10.37
2019-04-28T07:46:33.727Z,10.38
2019-04-28T07:47:33.687Z,10.40
2019-04-28T07:48:33.682Z,10.53
2019-04-28T07:49:33.668Z,10.38
2019-04-28T07:50:33.643Z,10.54
2019-04-28T07:51:33.670Z,10.56
2019-04-28T07:52:33.615Z,10.71
2019-04-28T07:53:33.720Z,10.76
2019-04-28T07:54:33.630Z,10.72
2019-04-28T07:55:33.616Z,10.75
2019-04-28T07:56:33.563Z,10.84
2019-04-28T07:57:33.594Z,10.93
2019-04-28T07:58:33.558Z,10.89
2019-04-28T07:59:33.541Z,10.89
2019-04-28T08:00:33.521Z,10.87
2019-04-28T08:01:33.584Z,10.96
2019-04-28T08:02:33.528Z,10.96
2019-04-28T08:03:33.523Z,10.87
2019-04-28T08:04:33.485Z,10.78
2019-04-28T08:05:33.492Z,10.78
2019-04-28T08:06:33.479Z,10.90
2019-04-28T08:07:33.470Z,10.97
2019-04-28T08:08:33.547Z,10.94
2019-04-28T08:09:33.653Z,10.94
2019-04-28T08:10:33.436Z,11.04
2019-04-28T08:11:33.414Z,10.97
2019-04-28T08:12:33.502Z,10.99
2019-04-28T08:13:33.385Z,11.10
2019-04-28T08:14:33.400Z,11.17
2019-04-28T08:15:33.370Z,11.19
2019-04-28T08:16:33.352Z,11.19
2019-04-28T08:17:33.419Z,11.29
2019-04-28T08:18:33.334Z,11.25
2019-04-28T08:19:33.334Z,11.36
2019-04-28T08:20:33.354Z,11.43
2019-04-28T08:21:33.293Z,11.50
2019-04-28T08:22:33.285Z,11.47
2019-04-28T08:23:40.933Z,11.47
2019-04-28T08:24:34.291Z,11.45
2019-04-28T08:25:34.094Z,11.47
2019-04-28T08:26:36.113Z,11.37
2019-04-28T08:27:33.234Z,11.36
2019-04-28T08:28:33.337Z,11.36
2019-04-28T08:29:33.221Z,11.30
2019-04-28T08:30:33.196Z,11.36
2019-04-28T08:31:33.194Z,11.29
2019-04-28T08:32:33.222Z,11.27
2019-04-28T08:33:33.416Z,11.30
2019-04-28T08:34:33.172Z,11.32
2019-04-28T08:35:33.172Z,11.29
2019-04-28T08:36:33.136Z,11.15
2019-04-28T08:37:33.210Z,11.25
2019-04-28T08:38:33.139Z,11.23
2019-04-28T08:39:33.116Z,11.12
2019-04-28T08:40:33.128Z,11.15
2019-04-28T08:41:33.076Z,11.18
2019-04-28T08:42:33.072Z,11.11
2019-04-28T08:43:33.046Z,11.12
2019-04-28T08:44:33.043Z,11.17
2019-04-28T08:45:33.063Z,11.14
2019-04-28T08:46:33.109Z,11.12
2019-04-28T08:47:33.027Z,11.19
2019-04-28T08:48:33.055Z,11.26
2019-04-28T08:49:33.003Z,11.15
2019-04-28T08:50:33.024Z,11.26
2019-04-28T08:51:32.977Z,11.23
2019-04-28T08:52:33.062Z,11.29
2019-04-28T08:53:32.958Z,11.30
2019-04-28T08:54:32.953Z,11.33
2019-04-28T08:55:32.943Z,11.40
2019-04-28T08:56:33.599Z,11.52
2019-04-28T08:57:32.947Z,11.52
2019-04-28T08:58:32.941Z,11.55
2019-04-28T08:59:32.876Z,11.65
2019-04-28T09:00:32.924Z,11.72
2019-04-28T09:01:32.857Z,11.72
2019-04-28T09:02:32.863Z,11.73
2019-04-28T09:03:32.836Z,11.57
2019-04-28T09:04:32.857Z,11.54
2019-04-28T09:05:32.937Z,11.51
2019-04-28T09:06:32.804Z,11.54
2019-04-28T09:07:32.890Z,11.52
2019-04-28T09:08:32.901Z,11.44
2019-04-28T09:09:32.773Z,11.55
2019-04-28T09:10:32.770Z,11.52
2019-04-28T09:11:32.806Z,11.52
2019-04-28T09:12:32.753Z,11.54
2019-04-28T09:13:32.787Z,11.52
2019-04-28T09:14:32.714Z,11.52
2019-04-28T09:15:32.715Z,11.60
2019-04-28T09:16:32.704Z,11.70
2019-04-28T09:17:32.925Z,11.78
2019-04-28T09:18:32.806Z,11.90
2019-04-28T09:19:32.686Z,12.04
2019-04-28T09:20:32.694Z,12.07
2019-04-28T09:21:32.639Z,12.22
2019-04-28T09:22:32.732Z,12.40
2019-04-28T09:23:32.636Z,12.43
2019-04-28T09:24:32.618Z,12.58
2019-04-28T09:25:32.664Z,12.61
2019-04-28T09:26:32.600Z,12.60
2019-04-28T09:27:32.694Z,12.49
2019-04-28T09:28:32.555Z,12.43
2019-04-28T09:29:32.552Z,12.43
2019-04-28T09:30:32.631Z,12.43
2019-04-28T09:31:32.524Z,12.46
2019-04-28T09:32:32.520Z,12.42
2019-04-28T09:33:32.507Z,12.58
2019-04-28T09:34:32.494Z,12.57
2019-04-28T09:35:32.478Z,12.70
2019-04-28T09:36:32.508Z,12.76
2019-04-28T09:37:32.469Z,12.78
2019-04-28T09:38:32.536Z,12.85
2019-04-28T09:39:32.459Z,12.83
2019-04-28T09:40:32.432Z,12.91
2019-04-28T09:41:33.109Z,13.01
2019-04-28T09:42:32.708Z,13.08
2019-04-28T09:43:32.395Z,13.20
2019-04-28T09:44:32.388Z,13.13
2019-04-28T09:45:32.363Z,13.12
2019-04-28T09:46:32.377Z,12.97
2019-04-28T09:47:32.367Z,12.91
2019-04-28T09:48:32.391Z,12.91
2019-04-28T09:49:32.324Z,12.75
2019-04-28T09:50:32.334Z,12.72
2019-04-28T09:51:32.301Z,12.57
2019-04-28T09:52:32.301Z,12.55
2019-04-28T09:53:32.308Z,12.50
2019-04-28T09:54:32.328Z,12.68
2019-04-28T09:55:32.274Z,12.72
2019-04-28T09:56:32.249Z,12.75
2019-04-28T09:57:32.240Z,12.75
2019-04-28T09:58:32.255Z,12.75
2019-04-28T09:59:33.125Z,12.85
2019-04-28T10:00:32.214Z,12.82
2019-04-28T10:01:32.256Z,12.94
2019-04-28T10:02:32.270Z,13.01
2019-04-28T10:03:32.215Z,13.09
2019-04-28T10:04:41.337Z,13.11
2019-04-28T10:05:33.188Z,13.18
2019-04-28T10:06:32.136Z,13.25
2019-04-28T10:07:32.134Z,13.13
2019-04-28T10:08:32.143Z,13.18
2019-04-28T10:09:32.267Z,13.11
2019-04-28T10:10:32.156Z,13.20
2019-04-28T10:11:32.090Z,13.12
2019-04-28T10:12:32.089Z,13.18
2019-04-28T10:13:32.128Z,13.27
2019-04-28T10:14:32.080Z,13.27
2019-04-28T10:15:32.212Z,13.19
2019-04-28T10:16:32.242Z,13.25
2019-04-28T10:17:32.142Z,13.30
2019-04-28T10:18:32.173Z,13.33
2019-04-28T10:19:32.705Z,13.33
2019-04-28T10:20:32.003Z,13.30
2019-04-28T10:21:32.016Z,13.44
2019-04-28T10:22:31.972Z,13.56
2019-04-28T10:23:31.957Z,13.70
2019-04-28T10:24:31.945Z,13.75
2019-04-28T10:25:31.971Z,13.74
2019-04-28T10:26:31.911Z,13.54
2019-04-28T10:27:31.918Z,13.30
2019-04-28T10:28:31.930Z,13.20
2019-04-28T10:29:33.005Z,13.22
2019-04-28T10:30:31.930Z,13.30
2019-04-28T10:31:31.872Z,13.22
2019-04-28T10:32:31.859Z,13.19
2019-04-28T10:33:31.844Z,13.19
2019-04-28T10:34:32.623Z,13.11
2019-04-28T10:35:31.822Z,13.05
2019-04-28T10:36:31.845Z,13.12
2019-04-28T10:37:31.881Z,13.19
2019-04-28T10:38:31.782Z,13.15
2019-04-28T10:39:31.788Z,13.22
2019-04-28T10:40:31.792Z,13.33
2019-04-28T10:41:31.780Z,13.35
2019-04-28T10:42:31.757Z,13.49
2019-04-28T10:43:31.771Z,13.54
2019-04-28T10:44:31.741Z,13.49
2019-04-28T10:45:31.721Z,13.57
2019-04-28T10:46:31.692Z,13.56
2019-04-28T10:47:31.825Z,13.52
2019-04-28T10:48:31.737Z,13.60
2019-04-28T10:49:31.675Z,13.56
2019-04-28T10:50:31.647Z,13.52
2019-04-28T10:51:31.642Z,13.50
2019-04-28T10:52:31.633Z,13.33
2019-04-28T10:53:31.663Z,13.23
2019-04-28T10:54:31.726Z,13.28
2019-04-28T10:55:31.777Z,13.18
2019-04-28T10:56:31.587Z,13.22
2019-04-28T10:57:31.598Z,13.27
2019-04-28T10:58:31.598Z,13.23
2019-04-28T10:59:31.602Z,13.27
2019-04-28T11:00:31.558Z,13.39
2019-04-28T11:01:31.541Z,13.47
2019-04-28T11:02:31.534Z,13.53
2019-04-28T11:03:31.508Z,13.63
2019-04-28T11:04:31.552Z,13.62
2019-04-28T11:05:31.537Z,13.59
2019-04-28T11:06:31.498Z,13.68
2019-04-28T11:07:31.498Z,13.60
2019-04-28T11:08:31.451Z,13.60
2019-04-28T11:09:31.482Z,13.57
2019-04-28T11:10:31.435Z,13.46
2019-04-28T11:11:31.418Z,13.18
2019-04-28T11:12:31.433Z,13.13
2019-04-28T11:13:31.420Z,13.04
2019-04-28T11:14:31.543Z,12.90
2019-04-28T11:15:31.424Z,12.73
2019-04-28T11:16:31.376Z,12.54
2019-04-28T11:17:31.445Z,12.46
2019-04-28T11:18:31.358Z,12.39
2019-04-28T11:19:31.438Z,12.31
2019-04-28T11:20:31.323Z,12.21
2019-04-28T11:21:32.190Z,12.20
2019-04-28T11:22:31.305Z,12.36
2019-04-28T11:23:31.283Z,12.36
2019-04-28T11:24:31.322Z,12.45
2019-04-28T11:25:31.266Z,12.53
2019-04-28T11:26:31.268Z,12.49
2019-04-28T11:27:31.279Z,12.43
2019-04-28T11:28:31.229Z,12.45
2019-04-28T11:29:31.241Z,12.54
2019-04-28T11:30:31.213Z,12.58
2019-04-28T11:31:31.259Z,12.55
2019-04-28T11:32:31.183Z,12.53
2019-04-28T11:33:31.227Z,12.49
2019-04-28T11:34:31.169Z,12.36
2019-04-28T11:35:31.155Z,12.32
2019-04-28T11:36:31.139Z,12.25
2019-04-28T11:37:31.158Z,12.27
2019-04-28T11:38:31.295Z,12.31
2019-04-28T11:39:31.109Z,12.31
2019-04-28T11:40:31.090Z,12.22
2019-04-28T11:41:31.131Z,12.25
2019-04-28T11:42:31.085Z,12.25
2019-04-28T11:43:31.068Z,12.20
2019-04-28T11:44:31.217Z,12.24
2019-04-28T11:45:31.076Z,12.22
2019-04-28T11:46:31.744Z,12.18
2019-04-28T11:47:31.035Z,12.20
2019-04-28T11:48:31.008Z,12.20
2019-04-28T11:49:31.000Z,12.24
2019-04-28T11:50:31.010Z,12.25
2019-04-28T11:51:31.054Z,12.39
2019-04-28T11:52:30.969Z,12.46
2019-04-28T11:53:30.947Z,12.50
2019-04-28T11:54:31.085Z,12.57
2019-04-28T11:55:30.947Z,12.67
2019-04-28T11:56:40.863Z,12.70
2019-04-28T11:57:31.934Z,12.68
2019-04-28T11:58:30.934Z,12.78
2019-04-28T11:59:30.890Z,12.91
2019-04-28T12:00:30.880Z,13.01
2019-04-28T12:01:30.879Z,13.01
2019-04-28T12:02:30.882Z,13.15
2019-04-28T12:03:30.874Z,13.23
2019-04-28T12:04:30.832Z,13.47
2019-04-28T12:05:34.565Z,13.47
2019-04-28T12:06:30.809Z,13.56
2019-04-28T12:07:30.799Z,13.59
2019-04-28T12:08:30.881Z,13.59
2019-04-28T12:09:30.781Z,13.57
2019-04-28T12:10:30.852Z,13.47
2019-04-28T12:11:30.759Z,13.53
2019-04-28T12:12:30.754Z,13.46
2019-04-28T12:13:30.885Z,13.52
2019-04-28T12:14:30.754Z,13.54
2019-04-28T12:15:30.711Z,13.53
2019-04-28T12:16:30.694Z,13.31
2019-04-28T12:17:30.689Z,13.19
2019-04-28T12:18:30.672Z,13.11
2019-04-28T12:19:30.711Z,13.12
2019-04-28T12:20:30.666Z,13.22
2019-04-28T12:21:30.665Z,13.35
2019-04-28T12:22:30.634Z,13.35
2019-04-28T12:23:30.625Z,13.41
2019-04-28T12:24:30.647Z,13.57
2019-04-28T12:25:30.650Z,13.70
2019-04-28T12:26:30.587Z,13.93
2019-04-28T12:27:30.583Z,14.11
2019-04-28T12:28:30.564Z,14.17
2019-04-28T12:29:30.586Z,14.33
2019-04-28T12:30:30.542Z,14.37
2019-04-28T12:31:30.537Z,14.30
2019-04-28T12:32:30.542Z,14.29
2019-04-28T12:33:30.507Z,14.30
2019-04-28T12:34:30.543Z,14.40
2019-04-28T12:35:30.481Z,14.43
2019-04-28T12:36:30.483Z,14.43
2019-04-28T12:37:30.471Z,14.51
2019-04-28T12:38:30.459Z,14.58
2019-04-28T12:39:30.439Z,14.85
2019-04-28T12:40:30.680Z,14.78
2019-04-28T12:41:30.422Z,14.79
2019-04-28T12:42:30.455Z,14.77
2019-04-28T12:43:30.535Z,14.79
2019-04-28T12:44:30.380Z,14.79
2019-04-28T12:45:35.151Z,14.88
2019-04-28T12:46:31.406Z,14.89
2019-04-28T12:47:30.352Z,15.25
2019-04-28T12:48:32.621Z,15.44
2019-04-28T12:49:30.327Z,15.61
2019-04-28T12:50:30.347Z,15.61
2019-04-28T12:51:30.307Z,15.55
2019-04-28T12:52:30.297Z,15.31
2019-04-28T12:53:30.284Z,14.86
2019-04-28T12:54:30.308Z,14.79
2019-04-28T12:55:30.270Z,14.58
2019-04-28T12:56:30.348Z,14.43
2019-04-28T12:57:30.246Z,14.33
2019-04-28T12:58:30.234Z,14.35
2019-04-28T12:59:30.224Z,14.26
2019-04-28T13:00:30.280Z,14.33
2019-04-28T13:01:30.285Z,14.17
2019-04-28T13:02:30.230Z,14.28
2019-04-28T13:03:30.177Z,14.04
2019-04-28T13:04:30.191Z,13.72
2019-04-28T13:05:30.170Z,13.57
2019-04-28T13:06:30.152Z,13.41
2019-04-28T13:07:30.219Z,13.27